Архив погоды в Замокте

Метеограмма Замокта
Вторник, 19 Июня
Время местн. Темп Ветер Видим Явления Облачность нижн/средн/верх Атм. давл. Влжн Точка росы ВНГО R Сост. почвы Tg s
Напр Скр Прв ур.ст ур.м изм
05:00 - +8.8° Ю 1 - - - - 653 636 +0.2 74% +4.5° - - - - -
02:00 +9.2° С,С-З 3 - - - переменная облачность 653 636 +0.1 74% +4.9° 1 км - - - -
Понедельник, 18 Июня
Время местн. Темп Ветер Видим Явления Облачность нижн/средн/верх Атм. давл. Влжн Точка росы ВНГО R Сост. почвы Tg s
Напр Скр Прв ур.ст ур.м изм
23:00 - +9.8° С,С-З 2 - - - - 652 636 +0.7 69% +4.4° - - - - -
20:00 +14.9° С 3 16 20 км - переменная облачность 652 635 +0.8 49% +4.3° 1 км 0 - - -
17:00 - +18.3° С-З 4 - - - - 651 635 0 41% +4.8° - - - - -
14:00 +18.4° З,С-З 4 12 20 км - облачно с прояснениями 651 635 -0.5 38% +4° 1 км - - - -
11:00 - +17.7° С-З 3 - - - - 651 635 +0.2 47% +6.4° - - - - -
08:00 +12.7° С-З 4 10 20 км - переменная облачность 651 635 +0.2 64% +6.1° более 2.5 км 0 Влажная (без луж) +4° -
05:00 - +7° С-З 3 - - - - 651 634 +0.2 83% +4.4° - - - - -
02:00 +6.9° С-З 2 11 - - переменная облачность 651 634 +0.2 82% +4.1° 1 км - - - -
Воскресенье, 17 Июня
Время местн. Темп Ветер Видим Явления Облачность нижн/средн/верх Атм. давл. Влжн Точка росы ВНГО R Сост. почвы Tg s
Напр Скр Прв ур.ст ур.м изм
23:00 - +7.8° С-З 4 - - - - 651 634 +0.8 80% +4.6° - - - - -
20:00 +11.2° С-З 1 12 20 км небо без изменений {ливневые осадки} облачно с прояснениями 650 633 +0.5 70% +5.9° 1 км 2 - - -
17:00 - +15.2° З,С-З 5 10 - - - 649 633 +0.1 48% +4.4° - - - - -
14:00 +13.9° С 2 12 20 км - облачно 650 633 -0.2 61% +6.6° 1 км - - - -
11:00 - +12.8° С-З 4 - - - - 650 633 -0.4 63% +5.9° - - - - -
08:00 +11° З,С-З 2 - 20 км - облачно с прояснениями 650 634 +0.1 70% +5.7° 1 км 0 Влажная (без луж) - -
05:00 - +6.3° С-В 1 - - - - 650 633 -0.3 91% +4.9° - - - - -
02:00 +8.2° З 1 - - - переменная облачность 650 634 -0.2 89% +6.5° 1 км - - - -
Суббота, 16 Июня
Время местн. Темп Ветер Видим Явления Облачность нижн/средн/верх Атм. давл. Влжн Точка росы ВНГО R Сост. почвы Tg s
Напр Скр Прв ур.ст ур.м изм
23:00 - +8.1° С-З 3 - - - - 651 634 +0.2 87% +6° - - - - -
20:00 +11.9° З,С-З 3 - 20 км небо без изменений {гроза, ливневые осадки} облачно с прояснениями 650 634 -0.1 70% +6.7° 1 км 0.6 - - -
17:00 - +12.2° З,С-З 2 - - - - 650 634 0 78% +8.5° - - - - -
14:00 +13.3° Ю 2 - 10 км слабый ливневый дождь облачно 650 634 -0.4 78% +9.5° 1 км - - - -
11:00 - +14.5° Ю 2 - - - - 651 634 0 68% +8.6° - - - - -
08:00 +10.5° В,Ю-В 1 - 20 км - облачно 651 634 +0.5 82% +7.6° более 2.5 км 0 Влажная (без луж) +4° -
05:00 - +8.4° В 2 - - - - 650 634 0 89% +6.7° - - - - -
02:00 +7.8° С-В 2 - - - переменная облачность 650 633 +0.5 90% +6.2° более 2.5 км - - - -